sensor_id;sensor_type;location;lat;lon;timestamp;P1;durP1;ratioP1;P2;durP2;ratioP2
52878;SDS011;38747;53.140;6.498;2022-10-22T00:00:22;11.90;;;6.83;;
52878;SDS011;38747;53.140;6.498;2022-10-22T00:02:48;14.63;;;6.82;;
52878;SDS011;38747;53.140;6.498;2022-10-22T00:05:13;13.57;;;6.72;;
52878;SDS011;38747;53.140;6.498;2022-10-22T00:07:39;15.23;;;6.60;;
52878;SDS011;38747;53.140;6.498;2022-10-22T00:10:05;14.90;;;6.88;;
52878;SDS011;38747;53.140;6.498;2022-10-22T00:12:32;12.88;;;6.75;;
52878;SDS011;38747;53.140;6.498;2022-10-22T00:14:58;14.97;;;6.63;;
52878;SDS011;38747;53.140;6.498;2022-10-22T00:17:23;13.52;;;6.63;;
52878;SDS011;38747;53.140;6.498;2022-10-22T00:19:49;13.37;;;7.03;;
52878;SDS011;38747;53.140;6.498;2022-10-22T00:22:14;15.05;;;7.00;;
52878;SDS011;38747;53.140;6.498;2022-10-22T00:24:40;15.20;;;6.70;;
52878;SDS011;38747;53.140;6.498;2022-10-22T00:27:07;16.42;;;7.60;;
52878;SDS011;38747;53.140;6.498;2022-10-22T00:29:38;15.10;;;6.88;;
52878;SDS011;38747;53.140;6.498;2022-10-22T00:32:04;12.83;;;6.57;;
52878;SDS011;38747;53.140;6.498;2022-10-22T00:34:30;15.68;;;7.78;;
52878;SDS011;38747;53.140;6.498;2022-10-22T00:36:56;14.90;;;6.97;;
52878;SDS011;38747;53.140;6.498;2022-10-22T00:39:22;14.20;;;6.70;;
52878;SDS011;38747;53.140;6.498;2022-10-22T00:41:49;15.07;;;7.00;;
52878;SDS011;38747;53.140;6.498;2022-10-22T00:47:19;13.10;;;7.57;;
52878;SDS011;38747;53.140;6.498;2022-10-22T00:49:48;12.77;;;6.82;;
52878;SDS011;38747;53.140;6.498;2022-10-22T00:52:14;15.30;;;7.20;;
52878;SDS011;38747;53.140;6.498;2022-10-22T00:54:39;16.33;;;8.10;;
52878;SDS011;38747;53.140;6.498;2022-10-22T00:57:06;13.43;;;7.53;;
52878;SDS011;38747;53.140;6.498;2022-10-22T00:59:32;18.13;;;8.07;;
52878;SDS011;38747;53.140;6.498;2022-10-22T01:01:58;13.90;;;8.00;;
52878;SDS011;38747;53.140;6.498;2022-10-22T01:04:23;16.67;;;8.17;;
52878;SDS011;38747;53.140;6.498;2022-10-22T01:06:49;17.13;;;8.43;;
52878;SDS011;38747;53.140;6.498;2022-10-22T01:09:19;12.88;;;7.60;;
52878;SDS011;38747;53.140;6.498;2022-10-22T01:14:37;13.15;;;7.28;;
52878;SDS011;38747;53.140;6.498;2022-10-22T01:17:21;14.18;;;6.82;;
52878;SDS011;38747;53.140;6.498;2022-10-22T01:22:39;14.63;;;6.80;;
52878;SDS011;38747;53.140;6.498;2022-10-22T01:25:11;14.45;;;6.78;;
52878;SDS011;38747;53.140;6.498;2022-10-22T01:28:00;14.85;;;7.00;;
52878;SDS011;38747;53.140;6.498;2022-10-22T01:30:42;13.77;;;6.70;;
52878;SDS011;38747;53.140;6.498;2022-10-22T01:33:10;13.10;;;6.90;;
52878;SDS011;38747;53.140;6.498;2022-10-22T01:35:40;18.55;;;7.28;;
52878;SDS011;38747;53.140;6.498;2022-10-22T01:38:08;14.50;;;7.28;;
52878;SDS011;38747;53.140;6.498;2022-10-22T01:40:38;15.30;;;7.10;;
52878;SDS011;38747;53.140;6.498;2022-10-22T01:43:05;17.23;;;6.93;;
52878;SDS011;38747;53.140;6.498;2022-10-22T01:45:36;13.73;;;6.70;;
52878;SDS011;38747;53.140;6.498;2022-10-22T01:48:21;14.02;;;6.40;;
52878;SDS011;38747;53.140;6.498;2022-10-22T01:53:33;11.68;;;6.60;;
52878;SDS011;38747;53.140;6.498;2022-10-22T01:56:20;12.52;;;6.05;;
52878;SDS011;38747;53.140;6.498;2022-10-22T02:02:11;12.45;;;6.70;;
52878;SDS011;38747;53.140;6.498;2022-10-22T02:04:59;11.45;;;6.57;;
52878;SDS011;38747;53.140;6.498;2022-10-22T02:07:33;12.82;;;6.75;;
52878;SDS011;38747;53.140;6.498;2022-10-22T02:10:03;12.40;;;6.35;;
52878;SDS011;38747;53.140;6.498;2022-10-22T02:12:31;16.97;;;6.50;;
52878;SDS011;38747;53.140;6.498;2022-10-22T02:14:59;13.90;;;6.57;;
52878;SDS011;38747;53.140;6.498;2022-10-22T02:17:27;14.82;;;6.65;;
52878;SDS011;38747;53.140;6.498;2022-10-22T02:20:00;13.82;;;6.03;;
52878;SDS011;38747;53.140;6.498;2022-10-22T02:22:35;15.27;;;6.65;;
52878;SDS011;38747;53.140;6.498;2022-10-22T02:25:01;14.10;;;6.43;;
52878;SDS011;38747;53.140;6.498;2022-10-22T02:27:32;16.48;;;6.63;;
52878;SDS011;38747;53.140;6.498;2022-10-22T02:30:08;13.35;;;7.13;;
52878;SDS011;38747;53.140;6.498;2022-10-22T02:32:43;13.32;;;6.57;;
52878;SDS011;38747;53.140;6.498;2022-10-22T02:35:14;12.80;;;7.13;;
52878;SDS011;38747;53.140;6.498;2022-10-22T02:37:42;14.18;;;6.95;;
52878;SDS011;38747;53.140;6.498;2022-10-22T02:40:09;14.57;;;7.03;;
52878;SDS011;38747;53.140;6.498;2022-10-22T02:42:35;12.82;;;6.90;;
52878;SDS011;38747;53.140;6.498;2022-10-22T02:45:03;14.85;;;6.50;;
52878;SDS011;38747;53.140;6.498;2022-10-22T02:47:29;16.33;;;6.80;;
52878;SDS011;38747;53.140;6.498;2022-10-22T02:49:55;14.25;;;6.80;;
52878;SDS011;38747;53.140;6.498;2022-10-22T02:52:20;15.23;;;6.70;;
52878;SDS011;38747;53.140;6.498;2022-10-22T02:54:46;19.02;;;6.88;;
52878;SDS011;38747;53.140;6.498;2022-10-22T02:57:12;15.77;;;7.40;;
52878;SDS011;38747;53.140;6.498;2022-10-22T02:59:37;16.07;;;7.00;;
52878;SDS011;38747;53.140;6.498;2022-10-22T03:02:03;14.10;;;7.13;;
52878;SDS011;38747;53.140;6.498;2022-10-22T03:04:28;15.57;;;7.20;;
52878;SDS011;38747;53.140;6.498;2022-10-22T03:06:54;15.75;;;6.95;;
52878;SDS011;38747;53.140;6.498;2022-10-22T03:09:20;13.40;;;6.27;;
52878;SDS011;38747;53.140;6.498;2022-10-22T03:11:45;12.03;;;6.23;;
52878;SDS011;38747;53.140;6.498;2022-10-22T03:14:11;13.65;;;6.95;;
52878;SDS011;38747;53.140;6.498;2022-10-22T03:16:37;14.13;;;6.72;;
52878;SDS011;38747;53.140;6.498;2022-10-22T03:19:02;16.13;;;6.87;;
52878;SDS011;38747;53.140;6.498;2022-10-22T03:23:58;14.70;;;6.70;;
52878;SDS011;38747;53.140;6.498;2022-10-22T03:26:27;13.68;;;6.20;;
52878;SDS011;38747;53.140;6.498;2022-10-22T03:28:53;15.10;;;6.53;;
52878;SDS011;38747;53.140;6.498;2022-10-22T03:31:19;15.60;;;7.03;;
52878;SDS011;38747;53.140;6.498;2022-10-22T03:33:44;14.80;;;6.50;;
52878;SDS011;38747;53.140;6.498;2022-10-22T03:36:10;16.03;;;6.60;;
52878;SDS011;38747;53.140;6.498;2022-10-22T03:41:04;16.90;;;6.70;;
52878;SDS011;38747;53.140;6.498;2022-10-22T03:43:30;13.73;;;6.90;;
52878;SDS011;38747;53.140;6.498;2022-10-22T03:45:55;14.90;;;6.70;;
52878;SDS011;38747;53.140;6.498;2022-10-22T03:48:21;15.37;;;6.47;;
52878;SDS011;38747;53.140;6.498;2022-10-22T03:50:47;14.10;;;7.25;;
52878;SDS011;38747;53.140;6.498;2022-10-22T03:53:13;14.82;;;7.15;;
52878;SDS011;38747;53.140;6.498;2022-10-22T03:55:39;14.00;;;6.90;;
52878;SDS011;38747;53.140;6.498;2022-10-22T03:58:05;14.20;;;6.85;;
52878;SDS011;38747;53.140;6.498;2022-10-22T04:00:31;13.40;;;6.80;;
52878;SDS011;38747;53.140;6.498;2022-10-22T04:02:58;17.65;;;7.20;;
52878;SDS011;38747;53.140;6.498;2022-10-22T04:05:24;16.30;;;7.47;;
52878;SDS011;38747;53.140;6.498;2022-10-22T04:07:49;15.93;;;7.33;;
52878;SDS011;38747;53.140;6.498;2022-10-22T04:10:15;14.37;;;7.10;;
52878;SDS011;38747;53.140;6.498;2022-10-22T04:12:41;13.50;;;7.00;;
52878;SDS011;38747;53.140;6.498;2022-10-22T04:15:06;13.47;;;6.97;;
52878;SDS011;38747;53.140;6.498;2022-10-22T04:17:36;16.10;;;7.20;;
52878;SDS011;38747;53.140;6.498;2022-10-22T04:20:02;13.23;;;7.50;;
52878;SDS011;38747;53.140;6.498;2022-10-22T04:22:29;14.15;;;7.45;;
52878;SDS011;38747;53.140;6.498;2022-10-22T04:24:58;18.08;;;7.18;;
52878;SDS011;38747;53.140;6.498;2022-10-22T04:27:23;19.70;;;7.70;;
52878;SDS011;38747;53.140;6.498;2022-10-22T04:29:49;16.77;;;7.47;;
52878;SDS011;38747;53.140;6.498;2022-10-22T04:32:14;17.98;;;7.32;;
52878;SDS011;38747;53.140;6.498;2022-10-22T04:34:40;17.57;;;7.10;;
52878;SDS011;38747;53.140;6.498;2022-10-22T04:37:06;14.35;;;7.22;;
52878;SDS011;38747;53.140;6.498;2022-10-22T04:39:31;18.63;;;8.53;;
52878;SDS011;38747;53.140;6.498;2022-10-22T04:41:57;13.97;;;7.57;;
52878;SDS011;38747;53.140;6.498;2022-10-22T04:44:22;17.27;;;8.10;;
52878;SDS011;38747;53.140;6.498;2022-10-22T04:46:48;17.20;;;7.70;;
52878;SDS011;38747;53.140;6.498;2022-10-22T04:49:13;16.63;;;8.23;;
52878;SDS011;38747;53.140;6.498;2022-10-22T04:51:39;16.10;;;7.80;;
52878;SDS011;38747;53.140;6.498;2022-10-22T04:54:05;17.20;;;7.50;;
52878;SDS011;38747;53.140;6.498;2022-10-22T04:56:30;17.17;;;7.95;;
52878;SDS011;38747;53.140;6.498;2022-10-22T04:58:57;15.73;;;7.88;;
52878;SDS011;38747;53.140;6.498;2022-10-22T05:01:26;18.40;;;8.00;;
52878;SDS011;38747;53.140;6.498;2022-10-22T05:03:54;17.05;;;7.90;;
52878;SDS011;38747;53.140;6.498;2022-10-22T05:06:21;14.88;;;7.78;;
52878;SDS011;38747;53.140;6.498;2022-10-22T05:08:51;15.93;;;7.70;;
52878;SDS011;38747;53.140;6.498;2022-10-22T05:11:22;16.15;;;8.32;;
52878;SDS011;38747;53.140;6.498;2022-10-22T05:13:49;17.47;;;7.83;;
52878;SDS011;38747;53.140;6.498;2022-10-22T05:16:15;17.45;;;7.82;;
52878;SDS011;38747;53.140;6.498;2022-10-22T05:18:42;17.00;;;8.02;;
52878;SDS011;38747;53.140;6.498;2022-10-22T05:21:15;18.17;;;8.43;;
52878;SDS011;38747;53.140;6.498;2022-10-22T05:23:43;14.60;;;8.45;;
52878;SDS011;38747;53.140;6.498;2022-10-22T05:26:11;17.60;;;8.63;;
52878;SDS011;38747;53.140;6.498;2022-10-22T05:28:38;18.33;;;8.07;;
52878;SDS011;38747;53.140;6.498;2022-10-22T05:31:04;20.30;;;7.70;;
52878;SDS011;38747;53.140;6.498;2022-10-22T05:33:31;17.67;;;8.00;;
52878;SDS011;38747;53.140;6.498;2022-10-22T05:35:58;18.45;;;8.18;;
52878;SDS011;38747;53.140;6.498;2022-10-22T05:38:25;18.85;;;8.57;;
52878;SDS011;38747;53.140;6.498;2022-10-22T05:41:00;15.00;;;8.13;;
52878;SDS011;38747;53.140;6.498;2022-10-22T05:43:27;17.07;;;8.43;;
52878;SDS011;38747;53.140;6.498;2022-10-22T05:45:53;17.88;;;8.10;;
52878;SDS011;38747;53.140;6.498;2022-10-22T05:48:19;16.42;;;8.23;;
52878;SDS011;38747;53.140;6.498;2022-10-22T05:50:45;17.87;;;8.47;;
52878;SDS011;38747;53.140;6.498;2022-10-22T05:53:14;17.35;;;8.27;;
52878;SDS011;38747;53.140;6.498;2022-10-22T05:55:41;14.48;;;8.07;;
52878;SDS011;38747;53.140;6.498;2022-10-22T05:58:06;20.27;;;8.50;;
52878;SDS011;38747;53.140;6.498;2022-10-22T06:00:33;18.52;;;8.43;;
52878;SDS011;38747;53.140;6.498;2022-10-22T06:02:59;17.17;;;8.20;;
52878;SDS011;38747;53.140;6.498;2022-10-22T06:05:24;16.17;;;7.63;;
52878;SDS011;38747;53.140;6.498;2022-10-22T06:07:50;17.33;;;8.32;;
52878;SDS011;38747;53.140;6.498;2022-10-22T06:10:17;16.77;;;8.07;;
52878;SDS011;38747;53.140;6.498;2022-10-22T06:12:47;18.30;;;8.18;;
52878;SDS011;38747;53.140;6.498;2022-10-22T06:15:14;17.63;;;8.73;;
52878;SDS011;38747;53.140;6.498;2022-10-22T06:17:45;15.25;;;7.95;;
52878;SDS011;38747;53.140;6.498;2022-10-22T06:20:12;21.55;;;8.30;;
52878;SDS011;38747;53.140;6.498;2022-10-22T06:22:38;16.83;;;8.33;;
52878;SDS011;38747;53.140;6.498;2022-10-22T06:25:04;17.58;;;8.25;;
52878;SDS011;38747;53.140;6.498;2022-10-22T06:27:30;16.85;;;8.30;;
52878;SDS011;38747;53.140;6.498;2022-10-22T06:29:56;16.70;;;8.17;;
52878;SDS011;38747;53.140;6.498;2022-10-22T06:32:22;19.25;;;8.40;;
52878;SDS011;38747;53.140;6.498;2022-10-22T06:34:47;19.47;;;7.80;;
52878;SDS011;38747;53.140;6.498;2022-10-22T06:37:14;14.55;;;7.93;;
52878;SDS011;38747;53.140;6.498;2022-10-22T06:39:40;14.73;;;7.93;;
52878;SDS011;38747;53.140;6.498;2022-10-22T06:42:05;15.47;;;7.80;;
52878;SDS011;38747;53.140;6.498;2022-10-22T06:44:31;18.98;;;7.45;;
52878;SDS011;38747;53.140;6.498;2022-10-22T06:46:57;17.03;;;7.33;;
52878;SDS011;38747;53.140;6.498;2022-10-22T06:49:22;16.57;;;8.10;;
52878;SDS011;38747;53.140;6.498;2022-10-22T06:51:49;14.80;;;7.80;;
52878;SDS011;38747;53.140;6.498;2022-10-22T06:54:15;16.40;;;7.85;;
52878;SDS011;38747;53.140;6.498;2022-10-22T06:56:46;17.67;;;7.67;;
52878;SDS011;38747;53.140;6.498;2022-10-22T06:59:12;15.90;;;7.82;;
52878;SDS011;38747;53.140;6.498;2022-10-22T07:01:38;17.63;;;7.40;;
52878;SDS011;38747;53.140;6.498;2022-10-22T07:04:04;19.23;;;7.78;;
52878;SDS011;38747;53.140;6.498;2022-10-22T07:06:30;16.98;;;7.43;;
52878;SDS011;38747;53.140;6.498;2022-10-22T07:08:56;18.40;;;8.27;;
52878;SDS011;38747;53.140;6.498;2022-10-22T07:11:24;16.80;;;7.22;;
52878;SDS011;38747;53.140;6.498;2022-10-22T07:13:55;17.58;;;7.88;;
52878;SDS011;38747;53.140;6.498;2022-10-22T07:16:22;16.25;;;6.80;;
52878;SDS011;38747;53.140;6.498;2022-10-22T07:18:48;18.83;;;7.68;;
52878;SDS011;38747;53.140;6.498;2022-10-22T07:21:15;14.37;;;6.67;;
52878;SDS011;38747;53.140;6.498;2022-10-22T07:23:42;17.92;;;6.88;;
52878;SDS011;38747;53.140;6.498;2022-10-22T07:26:08;14.15;;;6.57;;
52878;SDS011;38747;53.140;6.498;2022-10-22T07:28:36;16.27;;;7.22;;
52878;SDS011;38747;53.140;6.498;2022-10-22T07:31:04;15.90;;;6.50;;
52878;SDS011;38747;53.140;6.498;2022-10-22T07:33:30;14.10;;;6.78;;
52878;SDS011;38747;53.140;6.498;2022-10-22T07:35:56;14.85;;;6.55;;
52878;SDS011;38747;53.140;6.498;2022-10-22T07:38:23;14.07;;;6.53;;
52878;SDS011;38747;53.140;6.498;2022-10-22T07:40:49;16.52;;;6.65;;
52878;SDS011;38747;53.140;6.498;2022-10-22T07:43:15;15.50;;;6.20;;
52878;SDS011;38747;53.140;6.498;2022-10-22T07:45:40;12.67;;;5.97;;
52878;SDS011;38747;53.140;6.498;2022-10-22T07:48:06;17.03;;;6.20;;
52878;SDS011;38747;53.140;6.498;2022-10-22T07:50:32;17.08;;;6.72;;
52878;SDS011;38747;53.140;6.498;2022-10-22T07:52:57;16.30;;;6.27;;
52878;SDS011;38747;53.140;6.498;2022-10-22T07:55:23;15.00;;;6.00;;
52878;SDS011;38747;53.140;6.498;2022-10-22T07:57:49;17.13;;;6.20;;
52878;SDS011;38747;53.140;6.498;2022-10-22T08:00:15;17.00;;;6.13;;
52878;SDS011;38747;53.140;6.498;2022-10-22T08:02:40;15.90;;;6.25;;
52878;SDS011;38747;53.140;6.498;2022-10-22T08:05:06;12.50;;;5.40;;
52878;SDS011;38747;53.140;6.498;2022-10-22T08:07:32;15.85;;;5.82;;
52878;SDS011;38747;53.140;6.498;2022-10-22T08:09:58;15.27;;;5.70;;
52878;SDS011;38747;53.140;6.498;2022-10-22T08:12:24;13.00;;;5.60;;
52878;SDS011;38747;53.140;6.498;2022-10-22T08:14:49;13.18;;;5.60;;
52878;SDS011;38747;53.140;6.498;2022-10-22T08:17:15;15.50;;;5.40;;
52878;SDS011;38747;53.140;6.498;2022-10-22T08:19:41;14.02;;;5.07;;
52878;SDS011;38747;53.140;6.498;2022-10-22T08:22:06;12.70;;;4.97;;
52878;SDS011;38747;53.140;6.498;2022-10-22T08:24:32;11.43;;;4.80;;
52878;SDS011;38747;53.140;6.498;2022-10-22T08:26:58;13.37;;;5.20;;
52878;SDS011;38747;53.140;6.498;2022-10-22T08:29:24;14.60;;;4.93;;
52878;SDS011;38747;53.140;6.498;2022-10-22T08:31:51;13.70;;;5.15;;
52878;SDS011;38747;53.140;6.498;2022-10-22T08:34:17;12.63;;;4.40;;
52878;SDS011;38747;53.140;6.498;2022-10-22T08:36:43;13.73;;;4.82;;
52878;SDS011;38747;53.140;6.498;2022-10-22T08:39:09;13.02;;;5.15;;
52878;SDS011;38747;53.140;6.498;2022-10-22T08:41:35;12.97;;;4.60;;
52878;SDS011;38747;53.140;6.498;2022-10-22T08:47:24;14.82;;;4.47;;
52878;SDS011;38747;53.140;6.498;2022-10-22T08:49:54;15.13;;;4.57;;
52878;SDS011;38747;53.140;6.498;2022-10-22T08:52:24;11.15;;;4.68;;
52878;SDS011;38747;53.140;6.498;2022-10-22T08:54:51;10.35;;;4.03;;
52878;SDS011;38747;53.140;6.498;2022-10-22T09:00:14;12.17;;;4.10;;
52878;SDS011;38747;53.140;6.498;2022-10-22T09:03:04;14.65;;;3.92;;
52878;SDS011;38747;53.140;6.498;2022-10-22T09:05:54;9.68;;;3.88;;
52878;SDS011;38747;53.140;6.498;2022-10-22T09:08:29;14.45;;;3.40;;
52878;SDS011;38747;53.140;6.498;2022-10-22T09:11:06;9.03;;;3.53;;
52878;SDS011;38747;53.140;6.498;2022-10-22T09:13:38;14.75;;;3.95;;
52878;SDS011;38747;53.140;6.498;2022-10-22T09:18:54;13.82;;;3.65;;
52878;SDS011;38747;53.140;6.498;2022-10-22T09:22:03;16.67;;;3.67;;
52878;SDS011;38747;53.140;6.498;2022-10-22T09:24:46;14.70;;;3.70;;
52878;SDS011;38747;53.140;6.498;2022-10-22T09:27:41;14.10;;;3.75;;
52878;SDS011;38747;53.140;6.498;2022-10-22T09:30:10;11.40;;;3.40;;
52878;SDS011;38747;53.140;6.498;2022-10-22T09:32:42;11.20;;;3.73;;
52878;SDS011;38747;53.140;6.498;2022-10-22T09:35:09;10.15;;;3.00;;
52878;SDS011;38747;53.140;6.498;2022-10-22T09:37:42;13.73;;;3.53;;
52878;SDS011;38747;53.140;6.498;2022-10-22T09:40:20;11.68;;;3.40;;
52878;SDS011;38747;53.140;6.498;2022-10-22T09:42:47;12.03;;;3.60;;
52878;SDS011;38747;53.140;6.498;2022-10-22T09:45:22;10.50;;;3.20;;
52878;SDS011;38747;53.140;6.498;2022-10-22T09:47:50;14.88;;;3.72;;
52878;SDS011;38747;53.140;6.498;2022-10-22T09:53:25;11.35;;;3.53;;
52878;SDS011;38747;53.140;6.498;2022-10-22T09:55:53;10.73;;;3.70;;
52878;SDS011;38747;53.140;6.498;2022-10-22T09:58:22;12.43;;;3.50;;
52878;SDS011;38747;53.140;6.498;2022-10-22T10:00:55;9.00;;;3.97;;
52878;SDS011;38747;53.140;6.498;2022-10-22T10:03:25;13.20;;;3.87;;
52878;SDS011;38747;53.140;6.498;2022-10-22T10:05:53;11.20;;;3.88;;
52878;SDS011;38747;53.140;6.498;2022-10-22T10:08:21;11.10;;;3.90;;
52878;SDS011;38747;53.140;6.498;2022-10-22T10:10:49;11.45;;;4.47;;
52878;SDS011;38747;53.140;6.498;2022-10-22T10:13:34;10.70;;;4.13;;
52878;SDS011;38747;53.140;6.498;2022-10-22T10:26:00;11.60;;;4.47;;
52878;SDS011;38747;53.140;6.498;2022-10-22T10:37:13;12.25;;;4.90;;
52878;SDS011;38747;53.140;6.498;2022-10-22T10:43:09;12.77;;;4.97;;
52878;SDS011;38747;53.140;6.498;2022-10-22T10:48:48;14.73;;;4.60;;
52878;SDS011;38747;53.140;6.498;2022-10-22T10:51:28;14.85;;;4.30;;
52878;SDS011;38747;53.140;6.498;2022-10-22T10:54:17;12.85;;;4.78;;
52878;SDS011;38747;53.140;6.498;2022-10-22T10:59:37;13.60;;;4.97;;
52878;SDS011;38747;53.140;6.498;2022-10-22T11:05:16;12.15;;;4.65;;
52878;SDS011;38747;53.140;6.498;2022-10-22T11:10:51;13.35;;;4.88;;
52878;SDS011;38747;53.140;6.498;2022-10-22T11:24:17;13.98;;;5.10;;
52878;SDS011;38747;53.140;6.498;2022-10-22T11:29:28;15.45;;;5.95;;
52878;SDS011;38747;53.140;6.498;2022-10-22T11:31:57;15.98;;;5.78;;
52878;SDS011;38747;53.140;6.498;2022-10-22T11:37:30;16.10;;;6.65;;
52878;SDS011;38747;53.140;6.498;2022-10-22T11:40:18;17.63;;;6.70;;
52878;SDS011;38747;53.140;6.498;2022-10-22T11:42:49;14.93;;;6.03;;
52878;SDS011;38747;53.140;6.498;2022-10-22T11:48:33;13.40;;;5.90;;
52878;SDS011;38747;53.140;6.498;2022-10-22T11:53:30;15.73;;;6.27;;
52878;SDS011;38747;53.140;6.498;2022-10-22T12:08:42;12.18;;;5.70;;
52878;SDS011;38747;53.140;6.498;2022-10-22T12:11:13;14.73;;;6.03;;
52878;SDS011;38747;53.140;6.498;2022-10-22T12:22:17;18.48;;;5.95;;
52878;SDS011;38747;53.140;6.498;2022-10-22T12:24:46;14.95;;;5.88;;
52878;SDS011;38747;53.140;6.498;2022-10-22T12:27:25;11.87;;;5.43;;
52878;SDS011;38747;53.140;6.498;2022-10-22T12:29:57;17.73;;;5.68;;
52878;SDS011;38747;53.140;6.498;2022-10-22T12:32:35;17.52;;;5.68;;
52878;SDS011;38747;53.140;6.498;2022-10-22T12:35:05;13.27;;;5.32;;
52878;SDS011;38747;53.140;6.498;2022-10-22T12:37:35;14.18;;;5.18;;
52878;SDS011;38747;53.140;6.498;2022-10-22T12:40:15;12.30;;;4.93;;
52878;SDS011;38747;53.140;6.498;2022-10-22T12:42:52;14.00;;;4.65;;
52878;SDS011;38747;53.140;6.498;2022-10-22T12:45:20;14.88;;;4.88;;
52878;SDS011;38747;53.140;6.498;2022-10-22T12:47:51;13.52;;;4.65;;
52878;SDS011;38747;53.140;6.498;2022-10-22T12:50:22;13.00;;;4.70;;
52878;SDS011;38747;53.140;6.498;2022-10-22T12:52:55;12.77;;;4.53;;
52878;SDS011;38747;53.140;6.498;2022-10-22T12:55:21;18.10;;;5.60;;
52878;SDS011;38747;53.140;6.498;2022-10-22T12:57:50;12.00;;;4.80;;
52878;SDS011;38747;53.140;6.498;2022-10-22T13:00:23;12.57;;;4.23;;
52878;SDS011;38747;53.140;6.498;2022-10-22T13:02:51;10.68;;;3.67;;
52878;SDS011;38747;53.140;6.498;2022-10-22T13:05:24;13.52;;;4.13;;
52878;SDS011;38747;53.140;6.498;2022-10-22T13:08:16;11.65;;;4.28;;
52878;SDS011;38747;53.140;6.498;2022-10-22T13:10:48;12.18;;;3.75;;
52878;SDS011;38747;53.140;6.498;2022-10-22T13:18:44;11.55;;;3.47;;
52878;SDS011;38747;53.140;6.498;2022-10-22T13:21:27;10.80;;;3.13;;
52878;SDS011;38747;53.140;6.498;2022-10-22T13:24:02;13.73;;;3.30;;
52878;SDS011;38747;53.140;6.498;2022-10-22T13:26:46;12.93;;;3.20;;
52878;SDS011;38747;53.140;6.498;2022-10-22T13:29:17;10.73;;;2.88;;
52878;SDS011;38747;53.140;6.498;2022-10-22T13:31:45;10.52;;;2.42;;
52878;SDS011;38747;53.140;6.498;2022-10-22T13:34:23;13.73;;;2.53;;
52878;SDS011;38747;53.140;6.498;2022-10-22T13:36:49;12.50;;;2.42;;
52878;SDS011;38747;53.140;6.498;2022-10-22T13:39:20;11.00;;;2.83;;
52878;SDS011;38747;53.140;6.498;2022-10-22T13:41:47;11.48;;;3.00;;
52878;SDS011;38747;53.140;6.498;2022-10-22T13:44:16;13.52;;;3.10;;
52878;SDS011;38747;53.140;6.498;2022-10-22T13:46:43;7.20;;;2.47;;
52878;SDS011;38747;53.140;6.498;2022-10-22T13:49:14;9.77;;;2.35;;
52878;SDS011;38747;53.140;6.498;2022-10-22T13:51:42;7.93;;;2.27;;
52878;SDS011;38747;53.140;6.498;2022-10-22T13:54:18;11.75;;;2.45;;
52878;SDS011;38747;53.140;6.498;2022-10-22T13:56:46;13.05;;;2.20;;
52878;SDS011;38747;53.140;6.498;2022-10-22T13:59:12;12.20;;;2.40;;
52878;SDS011;38747;53.140;6.498;2022-10-22T14:01:37;15.07;;;2.20;;
52878;SDS011;38747;53.140;6.498;2022-10-22T14:04:04;11.90;;;2.37;;
52878;SDS011;38747;53.140;6.498;2022-10-22T14:06:31;8.33;;;1.30;;
52878;SDS011;38747;53.140;6.498;2022-10-22T14:08:59;9.35;;;1.77;;
52878;SDS011;38747;53.140;6.498;2022-10-22T14:11:26;8.95;;;1.50;;
52878;SDS011;38747;53.140;6.498;2022-10-22T14:13:52;7.70;;;1.23;;
52878;SDS011;38747;53.140;6.498;2022-10-22T14:16:20;7.93;;;1.10;;
52878;SDS011;38747;53.140;6.498;2022-10-22T14:18:48;5.67;;;1.10;;
52878;SDS011;38747;53.140;6.498;2022-10-22T14:21:15;9.10;;;1.17;;
52878;SDS011;38747;53.140;6.498;2022-10-22T14:23:41;6.95;;;0.95;;
52878;SDS011;38747;53.140;6.498;2022-10-22T14:26:11;7.57;;;1.45;;
52878;SDS011;38747;53.140;6.498;2022-10-22T14:28:49;6.70;;;1.15;;
52878;SDS011;38747;53.140;6.498;2022-10-22T14:31:15;8.30;;;0.90;;
52878;SDS011;38747;53.140;6.498;2022-10-22T14:33:41;6.90;;;1.10;;
52878;SDS011;38747;53.140;6.498;2022-10-22T14:36:08;5.82;;;1.00;;
52878;SDS011;38747;53.140;6.498;2022-10-22T14:38:36;7.63;;;0.90;;
52878;SDS011;38747;53.140;6.498;2022-10-22T14:41:04;6.72;;;1.23;;
52878;SDS011;38747;53.140;6.498;2022-10-22T14:43:44;8.88;;;1.17;;
52878;SDS011;38747;53.140;6.498;2022-10-22T14:46:10;8.40;;;1.10;;
52878;SDS011;38747;53.140;6.498;2022-10-22T14:48:37;7.68;;;1.00;;
52878;SDS011;38747;53.140;6.498;2022-10-22T14:51:03;6.80;;;1.10;;
52878;SDS011;38747;53.140;6.498;2022-10-22T14:53:28;7.67;;;1.47;;
52878;SDS011;38747;53.140;6.498;2022-10-22T14:55:55;8.63;;;1.10;;
52878;SDS011;38747;53.140;6.498;2022-10-22T14:58:23;10.17;;;1.10;;
52878;SDS011;38747;53.140;6.498;2022-10-22T15:00:49;8.75;;;1.10;;
52878;SDS011;38747;53.140;6.498;2022-10-22T15:03:15;8.98;;;1.35;;
52878;SDS011;38747;53.140;6.498;2022-10-22T15:05:41;8.47;;;1.10;;
52878;SDS011;38747;53.140;6.498;2022-10-22T15:08:08;9.45;;;1.23;;
52878;SDS011;38747;53.140;6.498;2022-10-22T15:10:36;7.82;;;1.10;;
52878;SDS011;38747;53.140;6.498;2022-10-22T15:13:02;8.38;;;1.15;;
52878;SDS011;38747;53.140;6.498;2022-10-22T15:15:28;9.27;;;1.10;;
52878;SDS011;38747;53.140;6.498;2022-10-22T15:17:53;11.73;;;1.60;;
52878;SDS011;38747;53.140;6.498;2022-10-22T15:20:19;10.90;;;1.25;;
52878;SDS011;38747;53.140;6.498;2022-10-22T15:22:44;14.30;;;1.60;;
52878;SDS011;38747;53.140;6.498;2022-10-22T15:25:10;11.77;;;1.30;;
52878;SDS011;38747;53.140;6.498;2022-10-22T15:27:37;12.63;;;1.43;;
52878;SDS011;38747;53.140;6.498;2022-10-22T15:30:03;9.82;;;1.25;;
52878;SDS011;38747;53.140;6.498;2022-10-22T15:32:30;11.45;;;1.15;;
52878;SDS011;38747;53.140;6.498;2022-10-22T15:34:57;8.63;;;1.00;;
52878;SDS011;38747;53.140;6.498;2022-10-22T15:37:23;10.10;;;1.13;;
52878;SDS011;38747;53.140;6.498;2022-10-22T15:39:49;12.90;;;1.38;;
52878;SDS011;38747;53.140;6.498;2022-10-22T15:42:14;12.40;;;1.23;;
52878;SDS011;38747;53.140;6.498;2022-10-22T15:44:40;14.15;;;1.40;;
52878;SDS011;38747;53.140;6.498;2022-10-22T15:47:06;14.00;;;1.47;;
52878;SDS011;38747;53.140;6.498;2022-10-22T15:49:33;15.07;;;1.52;;
52878;SDS011;38747;53.140;6.498;2022-10-22T15:52:00;14.40;;;2.17;;
52878;SDS011;38747;53.140;6.498;2022-10-22T15:54:27;9.48;;;1.20;;
52878;SDS011;38747;53.140;6.498;2022-10-22T15:56:57;16.27;;;1.63;;
52878;SDS011;38747;53.140;6.498;2022-10-22T15:59:23;15.85;;;1.55;;
52878;SDS011;38747;53.140;6.498;2022-10-22T16:01:50;16.17;;;1.80;;
52878;SDS011;38747;53.140;6.498;2022-10-22T16:04:16;13.63;;;1.60;;
52878;SDS011;38747;53.140;6.498;2022-10-22T16:06:46;12.40;;;1.27;;
52878;SDS011;38747;53.140;6.498;2022-10-22T16:09:17;13.80;;;1.63;;
52878;SDS011;38747;53.140;6.498;2022-10-22T16:11:47;14.80;;;1.60;;
52878;SDS011;38747;53.140;6.498;2022-10-22T16:14:14;13.68;;;1.50;;
52878;SDS011;38747;53.140;6.498;2022-10-22T16:16:45;13.03;;;1.60;;
52878;SDS011;38747;53.140;6.498;2022-10-22T16:19:12;9.20;;;1.30;;
52878;SDS011;38747;53.140;6.498;2022-10-22T16:21:39;14.13;;;1.20;;
52878;SDS011;38747;53.140;6.498;2022-10-22T16:24:05;11.32;;;1.63;;
52878;SDS011;38747;53.140;6.498;2022-10-22T16:26:32;12.23;;;1.70;;
52878;SDS011;38747;53.140;6.498;2022-10-22T16:28:58;14.27;;;1.67;;
52878;SDS011;38747;53.140;6.498;2022-10-22T16:31:24;15.40;;;1.60;;
52878;SDS011;38747;53.140;6.498;2022-10-22T16:33:49;12.87;;;1.50;;
52878;SDS011;38747;53.140;6.498;2022-10-22T16:36:16;10.18;;;1.40;;
52878;SDS011;38747;53.140;6.498;2022-10-22T16:38:43;11.32;;;1.75;;